sensor_id;sensor_type;location;lat;lon;timestamp;temperature;humidity
5200;DHT22;2619;47.868;11.892;2023-06-24T00:01:25;15.40;99.90
5200;DHT22;2619;47.868;11.892;2023-06-24T00:03:51;15.40;99.90
5200;DHT22;2619;47.868;11.892;2023-06-24T00:06:22;15.40;99.90
5200;DHT22;2619;47.868;11.892;2023-06-24T00:08:51;15.40;99.90
5200;DHT22;2619;47.868;11.892;2023-06-24T00:11:17;15.50;99.90
5200;DHT22;2619;47.868;11.892;2023-06-24T00:13:43;15.50;99.90
5200;DHT22;2619;47.868;11.892;2023-06-24T00:16:09;15.50;99.90
5200;DHT22;2619;47.868;11.892;2023-06-24T00:18:36;15.40;99.90
5200;DHT22;2619;47.868;11.892;2023-06-24T00:21:02;15.50;99.90
5200;DHT22;2619;47.868;11.892;2023-06-24T00:23:29;15.60;99.90
5200;DHT22;2619;47.868;11.892;2023-06-24T00:26:15;15.60;99.90
5200;DHT22;2619;47.868;11.892;2023-06-24T00:28:42;15.70;99.90
5200;DHT22;2619;47.868;11.892;2023-06-24T00:31:07;15.70;99.90
5200;DHT22;2619;47.868;11.892;2023-06-24T00:33:33;15.80;99.90
5200;DHT22;2619;47.868;11.892;2023-06-24T00:36:01;15.80;99.90
5200;DHT22;2619;47.868;11.892;2023-06-24T00:38:27;15.80;99.90
5200;DHT22;2619;47.868;11.892;2023-06-24T00:40:58;15.90;99.90
5200;DHT22;2619;47.868;11.892;2023-06-24T00:43:23;15.90;99.90
5200;DHT22;2619;47.868;11.892;2023-06-24T00:45:50;15.80;99.90
5200;DHT22;2619;47.868;11.892;2023-06-24T00:48:16;15.80;99.90
5200;DHT22;2619;47.868;11.892;2023-06-24T00:50:41;15.80;99.90
5200;DHT22;2619;47.868;11.892;2023-06-24T00:53:11;15.80;99.90
5200;DHT22;2619;47.868;11.892;2023-06-24T00:55:37;15.90;99.90
5200;DHT22;2619;47.868;11.892;2023-06-24T00:58:04;15.80;99.90
5200;DHT22;2619;47.868;11.892;2023-06-24T01:00:30;15.80;99.90
5200;DHT22;2619;47.868;11.892;2023-06-24T01:02:58;15.80;99.90
5200;DHT22;2619;47.868;11.892;2023-06-24T01:05:25;15.80;99.90
5200;DHT22;2619;47.868;11.892;2023-06-24T01:07:52;15.80;99.90
5200;DHT22;2619;47.868;11.892;2023-06-24T01:10:22;15.80;99.90
5200;DHT22;2619;47.868;11.892;2023-06-24T01:12:49;15.80;99.90
5200;DHT22;2619;47.868;11.892;2023-06-24T01:15:15;15.80;99.90
5200;DHT22;2619;47.868;11.892;2023-06-24T01:20:18;15.80;99.90
5200;DHT22;2619;47.868;11.892;2023-06-24T01:28:20;15.80;99.90
5200;DHT22;2619;47.868;11.892;2023-06-24T01:36:27;15.80;99.90
5200;DHT22;2619;47.868;11.892;2023-06-24T01:38:59;15.80;99.90
5200;DHT22;2619;47.868;11.892;2023-06-24T01:41:34;15.80;99.90
5200;DHT22;2619;47.868;11.892;2023-06-24T01:44:01;15.80;99.90
5200;DHT22;2619;47.868;11.892;2023-06-24T01:46:29;15.70;99.90
5200;DHT22;2619;47.868;11.892;2023-06-24T01:48:58;15.80;99.90
5200;DHT22;2619;47.868;11.892;2023-06-24T01:51:26;15.80;99.90
5200;DHT22;2619;47.868;11.892;2023-06-24T01:54:00;15.90;99.90
5200;DHT22;2619;47.868;11.892;2023-06-24T01:56:28;15.90;99.90
5200;DHT22;2619;47.868;11.892;2023-06-24T01:58:56;15.90;99.90
5200;DHT22;2619;47.868;11.892;2023-06-24T02:01:24;15.90;99.90
5200;DHT22;2619;47.868;11.892;2023-06-24T02:03:50;15.90;99.90
5200;DHT22;2619;47.868;11.892;2023-06-24T02:06:18;15.90;99.90
5200;DHT22;2619;47.868;11.892;2023-06-24T02:08:48;15.90;99.90
5200;DHT22;2619;47.868;11.892;2023-06-24T02:11:14;15.90;99.90
5200;DHT22;2619;47.868;11.892;2023-06-24T02:13:42;16.00;99.90
5200;DHT22;2619;47.868;11.892;2023-06-24T02:16:10;16.00;99.90
5200;DHT22;2619;47.868;11.892;2023-06-24T02:18:38;16.00;99.90
5200;DHT22;2619;47.868;11.892;2023-06-24T02:21:08;16.00;99.90
5200;DHT22;2619;47.868;11.892;2023-06-24T02:23:35;15.90;99.90
5200;DHT22;2619;47.868;11.892;2023-06-24T02:26:01;15.90;99.90
5200;DHT22;2619;47.868;11.892;2023-06-24T02:28:28;15.90;99.90
5200;DHT22;2619;47.868;11.892;2023-06-24T02:30:54;15.90;99.90
5200;DHT22;2619;47.868;11.892;2023-06-24T02:33:21;15.90;99.90
5200;DHT22;2619;47.868;11.892;2023-06-24T02:35:46;15.90;99.90
5200;DHT22;2619;47.868;11.892;2023-06-24T02:38:12;15.90;99.90
5200;DHT22;2619;47.868;11.892;2023-06-24T02:40:38;15.90;99.90
5200;DHT22;2619;47.868;11.892;2023-06-24T02:43:03;15.90;99.90
5200;DHT22;2619;47.868;11.892;2023-06-24T02:45:29;16.00;99.90
5200;DHT22;2619;47.868;11.892;2023-06-24T02:47:56;16.00;99.90
5200;DHT22;2619;47.868;11.892;2023-06-24T02:50:23;15.90;99.90
5200;DHT22;2619;47.868;11.892;2023-06-24T02:52:49;15.90;99.90
5200;DHT22;2619;47.868;11.892;2023-06-24T02:55:15;15.90;99.90
5200;DHT22;2619;47.868;11.892;2023-06-24T02:57:41;15.90;99.90
5200;DHT22;2619;47.868;11.892;2023-06-24T03:00:07;16.00;99.90
5200;DHT22;2619;47.868;11.892;2023-06-24T03:02:41;16.00;99.90
5200;DHT22;2619;47.868;11.892;2023-06-24T03:05:08;16.00;99.90
5200;DHT22;2619;47.868;11.892;2023-06-24T03:07:34;16.00;99.90
5200;DHT22;2619;47.868;11.892;2023-06-24T03:10:03;15.90;99.90
5200;DHT22;2619;47.868;11.892;2023-06-24T03:12:29;15.90;99.90
5200;DHT22;2619;47.868;11.892;2023-06-24T03:14:54;15.90;99.90
5200;DHT22;2619;47.868;11.892;2023-06-24T03:17:20;15.90;99.90
5200;DHT22;2619;47.868;11.892;2023-06-24T03:19:46;15.90;99.90
5200;DHT22;2619;47.868;11.892;2023-06-24T03:22:11;15.90;99.90
5200;DHT22;2619;47.868;11.892;2023-06-24T03:24:37;15.90;99.90
5200;DHT22;2619;47.868;11.892;2023-06-24T03:27:03;15.80;99.90
5200;DHT22;2619;47.868;11.892;2023-06-24T03:29:28;15.90;99.90
5200;DHT22;2619;47.868;11.892;2023-06-24T03:31:54;15.90;99.90
5200;DHT22;2619;47.868;11.892;2023-06-24T03:34:19;15.80;99.90
5200;DHT22;2619;47.868;11.892;2023-06-24T03:36:45;15.80;99.90
5200;DHT22;2619;47.868;11.892;2023-06-24T03:39:11;15.80;99.90
5200;DHT22;2619;47.868;11.892;2023-06-24T03:41:36;15.80;99.90
5200;DHT22;2619;47.868;11.892;2023-06-24T03:44:02;15.80;99.90
5200;DHT22;2619;47.868;11.892;2023-06-24T03:46:27;15.90;99.90
5200;DHT22;2619;47.868;11.892;2023-06-24T03:48:58;15.90;99.90
5200;DHT22;2619;47.868;11.892;2023-06-24T03:51:24;15.90;99.90
5200;DHT22;2619;47.868;11.892;2023-06-24T03:53:49;16.00;99.90
5200;DHT22;2619;47.868;11.892;2023-06-24T03:56:15;16.00;99.90
5200;DHT22;2619;47.868;11.892;2023-06-24T03:58:41;16.00;99.90
5200;DHT22;2619;47.868;11.892;2023-06-24T04:01:06;16.00;99.90
5200;DHT22;2619;47.868;11.892;2023-06-24T04:03:32;16.00;99.90
5200;DHT22;2619;47.868;11.892;2023-06-24T04:05:58;16.00;99.90
5200;DHT22;2619;47.868;11.892;2023-06-24T04:08:23;16.10;99.90
5200;DHT22;2619;47.868;11.892;2023-06-24T04:10:55;16.10;99.90
5200;DHT22;2619;47.868;11.892;2023-06-24T04:13:20;16.10;99.90
5200;DHT22;2619;47.868;11.892;2023-06-24T04:15:46;16.10;99.90
5200;DHT22;2619;47.868;11.892;2023-06-24T04:18:11;16.20;99.90
5200;DHT22;2619;47.868;11.892;2023-06-24T04:20:37;16.20;99.90
5200;DHT22;2619;47.868;11.892;2023-06-24T04:23:04;16.20;99.90
5200;DHT22;2619;47.868;11.892;2023-06-24T04:25:30;16.20;99.90
5200;DHT22;2619;47.868;11.892;2023-06-24T04:27:55;16.20;99.90
5200;DHT22;2619;47.868;11.892;2023-06-24T04:30:21;16.20;99.90
5200;DHT22;2619;47.868;11.892;2023-06-24T04:32:47;16.30;99.90
5200;DHT22;2619;47.868;11.892;2023-06-24T04:35:13;16.40;99.90
5200;DHT22;2619;47.868;11.892;2023-06-24T04:37:38;16.50;99.90
5200;DHT22;2619;47.868;11.892;2023-06-24T04:40:05;16.50;99.90
5200;DHT22;2619;47.868;11.892;2023-06-24T04:42:31;16.60;99.90
5200;DHT22;2619;47.868;11.892;2023-06-24T04:44:56;16.70;99.90
5200;DHT22;2619;47.868;11.892;2023-06-24T04:47:22;16.70;99.90
5200;DHT22;2619;47.868;11.892;2023-06-24T04:49:48;16.70;99.90
5200;DHT22;2619;47.868;11.892;2023-06-24T04:52:13;16.80;99.90
5200;DHT22;2619;47.868;11.892;2023-06-24T04:54:39;17.00;99.90
5200;DHT22;2619;47.868;11.892;2023-06-24T04:57:08;17.10;99.90
5200;DHT22;2619;47.868;11.892;2023-06-24T04:59:34;17.10;99.90
5200;DHT22;2619;47.868;11.892;2023-06-24T05:01:59;17.10;99.90
5200;DHT22;2619;47.868;11.892;2023-06-24T05:04:25;17.20;99.90
5200;DHT22;2619;47.868;11.892;2023-06-24T05:06:51;17.20;99.90
5200;DHT22;2619;47.868;11.892;2023-06-24T05:09:17;17.20;99.90
5200;DHT22;2619;47.868;11.892;2023-06-24T05:11:42;17.30;99.90
5200;DHT22;2619;47.868;11.892;2023-06-24T05:14:08;17.30;99.90
5200;DHT22;2619;47.868;11.892;2023-06-24T05:16:34;17.50;99.90
5200;DHT22;2619;47.868;11.892;2023-06-24T05:18:59;17.50;99.90
5200;DHT22;2619;47.868;11.892;2023-06-24T05:21:25;17.50;99.90
5200;DHT22;2619;47.868;11.892;2023-06-24T05:23:50;17.60;99.90
5200;DHT22;2619;47.868;11.892;2023-06-24T05:26:16;17.80;99.90
5200;DHT22;2619;47.868;11.892;2023-06-24T05:28:41;17.80;99.90
5200;DHT22;2619;47.868;11.892;2023-06-24T05:31:07;17.80;99.90
5200;DHT22;2619;47.868;11.892;2023-06-24T05:33:33;17.90;99.90
5200;DHT22;2619;47.868;11.892;2023-06-24T05:35:59;18.00;99.90
5200;DHT22;2619;47.868;11.892;2023-06-24T05:38:24;18.30;99.90
5200;DHT22;2619;47.868;11.892;2023-06-24T05:40:50;18.40;99.90
5200;DHT22;2619;47.868;11.892;2023-06-24T05:43:15;18.50;99.90
5200;DHT22;2619;47.868;11.892;2023-06-24T05:45:41;18.70;99.90
5200;DHT22;2619;47.868;11.892;2023-06-24T05:48:06;19.00;99.90
5200;DHT22;2619;47.868;11.892;2023-06-24T05:50:32;19.20;99.90
5200;DHT22;2619;47.868;11.892;2023-06-24T05:52:58;19.40;99.90
5200;DHT22;2619;47.868;11.892;2023-06-24T05:55:26;19.60;99.90
5200;DHT22;2619;47.868;11.892;2023-06-24T05:57:52;19.80;99.90
5200;DHT22;2619;47.868;11.892;2023-06-24T06:00:18;20.00;99.90
5200;DHT22;2619;47.868;11.892;2023-06-24T06:02:44;20.20;99.90
5200;DHT22;2619;47.868;11.892;2023-06-24T06:05:09;20.50;99.90
5200;DHT22;2619;47.868;11.892;2023-06-24T06:07:35;20.50;99.90
5200;DHT22;2619;47.868;11.892;2023-06-24T06:10:04;20.60;99.90
5200;DHT22;2619;47.868;11.892;2023-06-24T06:12:30;20.50;99.90
5200;DHT22;2619;47.868;11.892;2023-06-24T06:14:55;20.90;99.90
5200;DHT22;2619;47.868;11.892;2023-06-24T06:17:21;21.30;99.90
5200;DHT22;2619;47.868;11.892;2023-06-24T06:19:46;21.80;99.90
5200;DHT22;2619;47.868;11.892;2023-06-24T06:22:12;22.10;99.90
5200;DHT22;2619;47.868;11.892;2023-06-24T06:24:39;22.20;99.90
5200;DHT22;2619;47.868;11.892;2023-06-24T06:27:05;22.40;99.90
5200;DHT22;2619;47.868;11.892;2023-06-24T06:29:34;22.50;99.90
5200;DHT22;2619;47.868;11.892;2023-06-24T06:31:59;22.60;99.90
5200;DHT22;2619;47.868;11.892;2023-06-24T06:34:25;22.60;99.90
5200;DHT22;2619;47.868;11.892;2023-06-24T06:36:50;22.60;99.90
5200;DHT22;2619;47.868;11.892;2023-06-24T06:39:16;22.40;99.40
5200;DHT22;2619;47.868;11.892;2023-06-24T06:41:42;22.30;99.90
5200;DHT22;2619;47.868;11.892;2023-06-24T06:44:07;22.20;99.90
5200;DHT22;2619;47.868;11.892;2023-06-24T06:46:33;22.10;99.90
5200;DHT22;2619;47.868;11.892;2023-06-24T06:48:58;22.10;99.90
5200;DHT22;2619;47.868;11.892;2023-06-24T06:51:25;21.90;99.90
5200;DHT22;2619;47.868;11.892;2023-06-24T06:53:51;21.90;99.90
5200;DHT22;2619;47.868;11.892;2023-06-24T06:56:18;21.90;99.90
5200;DHT22;2619;47.868;11.892;2023-06-24T06:58:44;22.10;99.90
5200;DHT22;2619;47.868;11.892;2023-06-24T07:01:10;22.40;99.90
5200;DHT22;2619;47.868;11.892;2023-06-24T07:03:35;22.50;99.90
5200;DHT22;2619;47.868;11.892;2023-06-24T07:06:01;22.50;99.90
5200;DHT22;2619;47.868;11.892;2023-06-24T07:08:26;22.50;99.90
5200;DHT22;2619;47.868;11.892;2023-06-24T07:10:52;22.60;99.90
5200;DHT22;2619;47.868;11.892;2023-06-24T07:13:17;22.80;99.90
5200;DHT22;2619;47.868;11.892;2023-06-24T07:15:43;23.20;99.90
5200;DHT22;2619;47.868;11.892;2023-06-24T07:18:08;23.50;98.70
5200;DHT22;2619;47.868;11.892;2023-06-24T07:20:34;23.60;99.40
5200;DHT22;2619;47.868;11.892;2023-06-24T07:22:59;23.80;99.60
5200;DHT22;2619;47.868;11.892;2023-06-24T07:25:25;24.10;98.80
5200;DHT22;2619;47.868;11.892;2023-06-24T07:27:51;23.90;96.30
5200;DHT22;2619;47.868;11.892;2023-06-24T07:30:17;23.70;99.00
5200;DHT22;2619;47.868;11.892;2023-06-24T07:32:42;23.60;99.50
5200;DHT22;2619;47.868;11.892;2023-06-24T07:35:08;23.90;99.50
5200;DHT22;2619;47.868;11.892;2023-06-24T07:37:34;24.10;98.20
5200;DHT22;2619;47.868;11.892;2023-06-24T07:40:00;24.10;97.50
5200;DHT22;2619;47.868;11.892;2023-06-24T07:42:25;24.30;97.30
5200;DHT22;2619;47.868;11.892;2023-06-24T07:44:51;24.10;97.80
5200;DHT22;2619;47.868;11.892;2023-06-24T07:47:19;24.10;96.90
5200;DHT22;2619;47.868;11.892;2023-06-24T07:49:45;23.80;98.00
5200;DHT22;2619;47.868;11.892;2023-06-24T07:52:10;24.00;96.90
5200;DHT22;2619;47.868;11.892;2023-06-24T07:54:36;24.20;96.10
5200;DHT22;2619;47.868;11.892;2023-06-24T07:57:02;24.30;95.80
5200;DHT22;2619;47.868;11.892;2023-06-24T07:59:28;24.20;94.30
5200;DHT22;2619;47.868;11.892;2023-06-24T08:01:53;24.30;95.50
5200;DHT22;2619;47.868;11.892;2023-06-24T08:04:19;24.50;95.90
5200;DHT22;2619;47.868;11.892;2023-06-24T08:06:44;24.40;93.10
5200;DHT22;2619;47.868;11.892;2023-06-24T08:09:10;24.10;93.30
5200;DHT22;2619;47.868;11.892;2023-06-24T08:11:36;23.90;92.30
5200;DHT22;2619;47.868;11.892;2023-06-24T08:14:01;23.90;94.50
5200;DHT22;2619;47.868;11.892;2023-06-24T08:16:27;24.30;91.90
5200;DHT22;2619;47.868;11.892;2023-06-24T08:18:53;24.40;92.10
5200;DHT22;2619;47.868;11.892;2023-06-24T08:21:19;24.60;91.90
5200;DHT22;2619;47.868;11.892;2023-06-24T08:23:45;24.50;92.50
5200;DHT22;2619;47.868;11.892;2023-06-24T08:26:10;24.60;90.90
5200;DHT22;2619;47.868;11.892;2023-06-24T08:28:55;24.60;92.80
5200;DHT22;2619;47.868;11.892;2023-06-24T08:35:01;24.60;91.90
5200;DHT22;2619;47.868;11.892;2023-06-24T08:37:27;24.70;91.70
5200;DHT22;2619;47.868;11.892;2023-06-24T08:39:53;24.80;91.70
5200;DHT22;2619;47.868;11.892;2023-06-24T08:42:18;24.70;91.50
5200;DHT22;2619;47.868;11.892;2023-06-24T08:44:44;24.70;94.40
5200;DHT22;2619;47.868;11.892;2023-06-24T08:47:09;24.90;92.90
5200;DHT22;2619;47.868;11.892;2023-06-24T08:49:44;24.70;92.30
5200;DHT22;2619;47.868;11.892;2023-06-24T08:52:14;24.60;92.70
5200;DHT22;2619;47.868;11.892;2023-06-24T08:54:42;24.00;92.40
5200;DHT22;2619;47.868;11.892;2023-06-24T08:57:11;23.90;92.20
5200;DHT22;2619;47.868;11.892;2023-06-24T08:59:40;23.70;91.50
5200;DHT22;2619;47.868;11.892;2023-06-24T09:02:06;23.40;91.70
5200;DHT22;2619;47.868;11.892;2023-06-24T09:04:32;22.60;93.60
5200;DHT22;2619;47.868;11.892;2023-06-24T09:06:58;22.70;94.10
5200;DHT22;2619;47.868;11.892;2023-06-24T09:09:24;23.30;92.10
5200;DHT22;2619;47.868;11.892;2023-06-24T09:11:54;23.50;93.30
5200;DHT22;2619;47.868;11.892;2023-06-24T09:14:20;23.90;92.70
5200;DHT22;2619;47.868;11.892;2023-06-24T09:16:56;24.40;91.50
5200;DHT22;2619;47.868;11.892;2023-06-24T09:19:27;24.50;88.20
5200;DHT22;2619;47.868;11.892;2023-06-24T09:21:55;24.90;91.10
5200;DHT22;2619;47.868;11.892;2023-06-24T09:24:21;25.00;93.20
5200;DHT22;2619;47.868;11.892;2023-06-24T09:26:46;25.30;91.30
5200;DHT22;2619;47.868;11.892;2023-06-24T09:29:15;25.70;89.70
5200;DHT22;2619;47.868;11.892;2023-06-24T09:31:48;26.10;85.20
5200;DHT22;2619;47.868;11.892;2023-06-24T09:34:14;26.40;83.40
5200;DHT22;2619;47.868;11.892;2023-06-24T09:36:55;26.50;84.10
5200;DHT22;2619;47.868;11.892;2023-06-24T09:39:21;26.70;84.90
5200;DHT22;2619;47.868;11.892;2023-06-24T09:41:50;26.80;88.80
5200;DHT22;2619;47.868;11.892;2023-06-24T09:44:17;27.10;86.80
5200;DHT22;2619;47.868;11.892;2023-06-24T09:46:45;27.30;81.70
5200;DHT22;2619;47.868;11.892;2023-06-24T09:49:10;26.70;81.00
5200;DHT22;2619;47.868;11.892;2023-06-24T09:51:43;26.30;83.50
5200;DHT22;2619;47.868;11.892;2023-06-24T09:54:10;25.90;81.60
5200;DHT22;2619;47.868;11.892;2023-06-24T09:56:37;25.30;82.60
5200;DHT22;2619;47.868;11.892;2023-06-24T09:59:07;24.90;83.70
5200;DHT22;2619;47.868;11.892;2023-06-24T10:01:38;24.70;88.60
5200;DHT22;2619;47.868;11.892;2023-06-24T10:04:06;24.40;90.30
5200;DHT22;2619;47.868;11.892;2023-06-24T10:06:32;24.30;90.70
5200;DHT22;2619;47.868;11.892;2023-06-24T10:08:59;24.40;90.10
5200;DHT22;2619;47.868;11.892;2023-06-24T10:11:25;24.70;88.50
5200;DHT22;2619;47.868;11.892;2023-06-24T10:13:51;24.70;90.40
5200;DHT22;2619;47.868;11.892;2023-06-24T10:16:17;24.90;90.10
5200;DHT22;2619;47.868;11.892;2023-06-24T10:18:44;25.10;90.50
5200;DHT22;2619;47.868;11.892;2023-06-24T10:21:10;25.40;88.70
5200;DHT22;2619;47.868;11.892;2023-06-24T10:26:35;25.60;88.50
5200;DHT22;2619;47.868;11.892;2023-06-24T10:37:12;25.30;85.70
5200;DHT22;2619;47.868;11.892;2023-06-24T10:39:39;25.30;88.50
5200;DHT22;2619;47.868;11.892;2023-06-24T10:42:27;25.10;85.50
5200;DHT22;2619;47.868;11.892;2023-06-24T10:44:55;25.30;88.10
5200;DHT22;2619;47.868;11.892;2023-06-24T10:47:22;25.20;90.20
5200;DHT22;2619;47.868;11.892;2023-06-24T10:49:48;25.50;90.10
5200;DHT22;2619;47.868;11.892;2023-06-24T10:52:14;25.80;90.50
5200;DHT22;2619;47.868;11.892;2023-06-24T10:54:40;26.00;85.50
5200;DHT22;2619;47.868;11.892;2023-06-24T10:57:07;26.00;83.00
5200;DHT22;2619;47.868;11.892;2023-06-24T10:59:53;26.00;86.80
5200;DHT22;2619;47.868;11.892;2023-06-24T11:02:20;26.40;87.60
5200;DHT22;2619;47.868;11.892;2023-06-24T11:04:47;26.70;82.80
5200;DHT22;2619;47.868;11.892;2023-06-24T11:07:14;26.80;81.00
5200;DHT22;2619;47.868;11.892;2023-06-24T11:09:40;27.00;83.00
5200;DHT22;2619;47.868;11.892;2023-06-24T11:12:09;26.10;86.40
5200;DHT22;2619;47.868;11.892;2023-06-24T11:14:35;25.10;86.80
5200;DHT22;2619;47.868;11.892;2023-06-24T11:17:02;25.30;87.00
5200;DHT22;2619;47.868;11.892;2023-06-24T11:19:30;24.80;81.50
5200;DHT22;2619;47.868;11.892;2023-06-24T11:21:59;25.00;83.50
5200;DHT22;2619;47.868;11.892;2023-06-24T11:24:26;25.50;86.10
5200;DHT22;2619;47.868;11.892;2023-06-24T11:26:52;25.70;88.40
5200;DHT22;2619;47.868;11.892;2023-06-24T11:29:18;25.70;83.20
5200;DHT22;2619;47.868;11.892;2023-06-24T11:31:45;25.80;84.00
5200;DHT22;2619;47.868;11.892;2023-06-24T11:34:11;25.60;83.20
5200;DHT22;2619;47.868;11.892;2023-06-24T11:36:36;25.30;81.80
5200;DHT22;2619;47.868;11.892;2023-06-24T11:39:02;24.90;82.70
5200;DHT22;2619;47.868;11.892;2023-06-24T11:41:28;24.20;89.00
5200;DHT22;2619;47.868;11.892;2023-06-24T11:43:54;24.20;91.60
5200;DHT22;2619;47.868;11.892;2023-06-24T11:46:26;24.40;88.30
5200;DHT22;2619;47.868;11.892;2023-06-24T11:48:57;24.70;87.80
5200;DHT22;2619;47.868;11.892;2023-06-24T11:51:27;25.20;91.70
5200;DHT22;2619;47.868;11.892;2023-06-24T11:53:58;25.40;83.90
5200;DHT22;2619;47.868;11.892;2023-06-24T11:56:37;25.80;88.50
5200;DHT22;2619;47.868;11.892;2023-06-24T11:59:23;26.20;84.70
5200;DHT22;2619;47.868;11.892;2023-06-24T12:01:54;26.50;80.50
5200;DHT22;2619;47.868;11.892;2023-06-24T12:04:20;26.30;82.30
5200;DHT22;2619;47.868;11.892;2023-06-24T12:06:46;26.70;86.80
5200;DHT22;2619;47.868;11.892;2023-06-24T12:09:11;27.30;83.00
5200;DHT22;2619;47.868;11.892;2023-06-24T12:11:37;26.70;85.20
5200;DHT22;2619;47.868;11.892;2023-06-24T12:14:03;26.50;82.90
5200;DHT22;2619;47.868;11.892;2023-06-24T12:16:29;26.50;82.00
5200;DHT22;2619;47.868;11.892;2023-06-24T12:18:55;26.50;79.90
5200;DHT22;2619;47.868;11.892;2023-06-24T12:21:21;26.50;79.80
5200;DHT22;2619;47.868;11.892;2023-06-24T12:23:47;26.30;81.40
5200;DHT22;2619;47.868;11.892;2023-06-24T12:26:13;26.20;81.90
5200;DHT22;2619;47.868;11.892;2023-06-24T12:28:38;25.90;82.80
5200;DHT22;2619;47.868;11.892;2023-06-24T12:31:04;25.60;83.30
5200;DHT22;2619;47.868;11.892;2023-06-24T12:33:33;25.60;81.80
5200;DHT22;2619;47.868;11.892;2023-06-24T12:35:59;25.40;83.70
5200;DHT22;2619;47.868;11.892;2023-06-24T12:38:24;25.30;85.80
5200;DHT22;2619;47.868;11.892;2023-06-24T12:40:50;25.20;83.60
5200;DHT22;2619;47.868;11.892;2023-06-24T12:43:15;25.30;84.00
5200;DHT22;2619;47.868;11.892;2023-06-24T12:45:41;25.50;85.80
5200;DHT22;2619;47.868;11.892;2023-06-24T12:48:09;25.90;81.40
5200;DHT22;2619;47.868;11.892;2023-06-24T12:50:35;25.70;84.00
5200;DHT22;2619;47.868;11.892;2023-06-24T12:53:01;26.10;85.00
5200;DHT22;2619;47.868;11.892;2023-06-24T12:55:27;26.80;82.60
5200;DHT22;2619;47.868;11.892;2023-06-24T12:57:52;27.20;82.90
5200;DHT22;2619;47.868;11.892;2023-06-24T13:00:22;27.60;80.40
5200;DHT22;2619;47.868;11.892;2023-06-24T13:02:48;27.00;76.60
5200;DHT22;2619;47.868;11.892;2023-06-24T13:05:14;27.30;82.80
5200;DHT22;2619;47.868;11.892;2023-06-24T13:07:40;27.40;82.40
5200;DHT22;2619;47.868;11.892;2023-06-24T13:10:06;27.10;89.30
5200;DHT22;2619;47.868;11.892;2023-06-24T13:12:33;26.50;89.40
5200;DHT22;2619;47.868;11.892;2023-06-24T13:14:58;26.70;84.10
5200;DHT22;2619;47.868;11.892;2023-06-24T13:17:24;26.80;76.90
5200;DHT22;2619;47.868;11.892;2023-06-24T13:19:51;26.80;83.80
5200;DHT22;2619;47.868;11.892;2023-06-24T13:22:17;26.30;83.00
5200;DHT22;2619;47.868;11.892;2023-06-24T13:24:42;26.50;80.40
5200;DHT22;2619;47.868;11.892;2023-06-24T13:27:08;26.60;82.90
5200;DHT22;2619;47.868;11.892;2023-06-24T13:29:34;26.50;84.20
5200;DHT22;2619;47.868;11.892;2023-06-24T13:31:59;26.30;81.50
5200;DHT22;2619;47.868;11.892;2023-06-24T13:34:25;26.00;79.10
5200;DHT22;2619;47.868;11.892;2023-06-24T13:36:51;25.50;84.10
5200;DHT22;2619;47.868;11.892;2023-06-24T13:39:16;24.90;86.70
5200;DHT22;2619;47.868;11.892;2023-06-24T13:41:47;24.90;86.50
5200;DHT22;2619;47.868;11.892;2023-06-24T13:44:13;25.00;85.50
5200;DHT22;2619;47.868;11.892;2023-06-24T13:46:38;25.30;83.30
5200;DHT22;2619;47.868;11.892;2023-06-24T13:49:04;25.60;80.20
5200;DHT22;2619;47.868;11.892;2023-06-24T13:51:30;25.80;82.30
5200;DHT22;2619;47.868;11.892;2023-06-24T13:53:56;26.00;77.00
5200;DHT22;2619;47.868;11.892;2023-06-24T13:56:23;26.30;85.40
5200;DHT22;2619;47.868;11.892;2023-06-24T13:58:50;26.30;79.50
5200;DHT22;2619;47.868;11.892;2023-06-24T14:01:15;26.40;80.50
5200;DHT22;2619;47.868;11.892;2023-06-24T14:03:42;26.50;78.60
5200;DHT22;2619;47.868;11.892;2023-06-24T14:06:07;26.50;80.00
5200;DHT22;2619;47.868;11.892;2023-06-24T14:08:33;26.50;79.40
5200;DHT22;2619;47.868;11.892;2023-06-24T14:11:00;26.50;77.60
5200;DHT22;2619;47.868;11.892;2023-06-24T14:13:26;26.60;77.30
5200;DHT22;2619;47.868;11.892;2023-06-24T14:15:53;26.60;77.70
5200;DHT22;2619;47.868;11.892;2023-06-24T14:18:19;26.50;75.40
5200;DHT22;2619;47.868;11.892;2023-06-24T14:20:44;26.50;74.10
5200;DHT22;2619;47.868;11.892;2023-06-24T14:23:10;26.50;77.80
5200;DHT22;2619;47.868;11.892;2023-06-24T14:25:36;26.40;76.90
5200;DHT22;2619;47.868;11.892;2023-06-24T14:28:03;26.00;76.60
5200;DHT22;2619;47.868;11.892;2023-06-24T14:30:29;25.60;78.00
5200;DHT22;2619;47.868;11.892;2023-06-24T14:32:55;25.40;80.90
5200;DHT22;2619;47.868;11.892;2023-06-24T14:35:20;25.20;77.10
5200;DHT22;2619;47.868;11.892;2023-06-24T14:37:46;25.30;79.40
5200;DHT22;2619;47.868;11.892;2023-06-24T14:40:11;25.60;80.40
5200;DHT22;2619;47.868;11.892;2023-06-24T14:42:37;26.00;78.40
5200;DHT22;2619;47.868;11.892;2023-06-24T14:45:03;26.40;76.10
5200;DHT22;2619;47.868;11.892;2023-06-24T14:47:28;26.60;77.70
5200;DHT22;2619;47.868;11.892;2023-06-24T14:49:54;26.50;75.20
5200;DHT22;2619;47.868;11.892;2023-06-24T14:52:19;26.30;71.90
5200;DHT22;2619;47.868;11.892;2023-06-24T14:54:46;26.00;80.20
5200;DHT22;2619;47.868;11.892;2023-06-24T14:57:12;25.60;75.60
5200;DHT22;2619;47.868;11.892;2023-06-24T14:59:37;25.20;74.00
5200;DHT22;2619;47.868;11.892;2023-06-24T15:02:03;25.10;78.00
5200;DHT22;2619;47.868;11.892;2023-06-24T15:04:29;25.20;77.70
5200;DHT22;2619;47.868;11.892;2023-06-24T15:06:54;25.30;76.80
5200;DHT22;2619;47.868;11.892;2023-06-24T15:09:22;25.40;82.70
5200;DHT22;2619;47.868;11.892;2023-06-24T15:11:48;25.50;79.00
5200;DHT22;2619;47.868;11.892;2023-06-24T15:14:13;25.10;76.10
5200;DHT22;2619;47.868;11.892;2023-06-24T15:16:39;25.30;76.50
5200;DHT22;2619;47.868;11.892;2023-06-24T15:19:04;25.70;80.90
5200;DHT22;2619;47.868;11.892;2023-06-24T15:21:30;26.00;82.30
5200;DHT22;2619;47.868;11.892;2023-06-24T15:23:55;26.20;74.80
5200;DHT22;2619;47.868;11.892;2023-06-24T15:26:21;26.00;77.10
5200;DHT22;2619;47.868;11.892;2023-06-24T15:28:46;25.70;75.20
5200;DHT22;2619;47.868;11.892;2023-06-24T15:31:14;25.30;77.50
5200;DHT22;2619;47.868;11.892;2023-06-24T15:33:39;25.10;82.20
5200;DHT22;2619;47.868;11.892;2023-06-24T15:36:05;24.90;82.00
5200;DHT22;2619;47.868;11.892;2023-06-24T15:38:30;24.80;78.60
5200;DHT22;2619;47.868;11.892;2023-06-24T15:40:56;24.90;80.60
5200;DHT22;2619;47.868;11.892;2023-06-24T15:43:22;24.60;78.00
5200;DHT22;2619;47.868;11.892;2023-06-24T15:45:47;24.40;83.90
5200;DHT22;2619;47.868;11.892;2023-06-24T15:48:13;24.30;83.50
5200;DHT22;2619;47.868;11.892;2023-06-24T15:50:39;24.40;82.20
5200;DHT22;2619;47.868;11.892;2023-06-24T15:53:05;24.40;81.60
5200;DHT22;2619;47.868;11.892;2023-06-24T15:55:30;24.30;85.20
5200;DHT22;2619;47.868;11.892;2023-06-24T15:57:56;24.20;82.70
5200;DHT22;2619;47.868;11.892;2023-06-24T16:00:21;23.80;84.40
5200;DHT22;2619;47.868;11.892;2023-06-24T16:02:47;23.70;86.70
5200;DHT22;2619;47.868;11.892;2023-06-24T16:05:13;24.00;85.20
5200;DHT22;2619;47.868;11.892;2023-06-24T16:07:39;24.20;82.00
5200;DHT22;2619;47.868;11.892;2023-06-24T16:10:05;24.30;84.30